LPPR/OPO METAR and TAF weather

Enter ICAO airport designator
Station Type Date Time Source
LPPR METAR 2020/11/27 14:30 UTC NOAA

LPPR 271430Z VRB02KT CAVOK 17/12 Q1008


Station Type Date Time Source
LPPR Decoded METAR 2020/11/27 14:30 UTC NOAA

Porto / Pedras Rubras, Portugal (LPPR) 41-14N 008-41W 77M
Nov 27, 2020 - 09:30 AM EST / 2020.11.27 1430 UTC
Wind: Variable at 2 MPH (2 KT):0
Visibility: greater than 7 mile(s):0
Temperature: 62 F (17 C)
Dew Point: 53 F (12 C)
Relative Humidity: 72%
Pressure (altimeter): 29.77 in. Hg (1008 hPa)
ob: LPPR 271430Z VRB02KT CAVOK 17/12 Q1008
cycle: 14

Station Type Date Time Source
LPPR TAF 2020/11/27 12:18 UTC NOAA

TAF LPPR 271100Z 2712/2812 VRB02KT 9999 FEW030
BECMG 2712/2715 32007KT SCT045
BECMG 2719/2721 09005KT FEW008
BECMG 2803/2805 15005KT PROB30
TEMPO 2803/2808 3000 BR SCT003
BECMG 2809/2812 15012KT FEW030

Example: see airport list